createdAt,value
2023-02-14T00:00:05.531Z,0.50
2023-02-14T00:05:07.119Z,0.57
2023-02-14T00:10:09.177Z,0.52
2023-02-14T00:15:22.969Z,0.50
2023-02-14T00:20:24.481Z,0.50
2023-02-14T00:25:25.996Z,0.40
2023-02-14T00:30:27.585Z,0.60
2023-02-14T00:35:29.069Z,0.50
2023-02-14T00:40:30.559Z,0.70
2023-02-14T00:45:32.065Z,0.55
2023-02-14T00:50:33.585Z,0.40
2023-02-14T00:55:35.103Z,0.70
2023-02-14T01:00:36.620Z,0.47
2023-02-14T01:05:38.156Z,0.70
2023-02-14T01:10:39.838Z,0.30
2023-02-14T01:15:42.470Z,0.68
2023-02-14T01:20:43.958Z,0.50
2023-02-14T01:25:45.474Z,0.43
2023-02-14T01:30:46.982Z,0.60
2023-02-14T01:35:48.497Z,0.45
2023-02-14T01:40:49.962Z,0.50
2023-02-14T01:45:51.625Z,0.45
2023-02-14T01:50:53.785Z,0.45
2023-02-14T01:56:00.140Z,0.50
2023-02-14T02:01:02.644Z,0.55
2023-02-14T02:06:13.193Z,0.30
2023-02-14T02:16:27.993Z,0.52
2023-02-14T02:21:44.593Z,0.43
2023-02-14T02:26:46.070Z,0.47
2023-02-14T02:31:56.722Z,0.38
2023-02-14T02:37:04.549Z,0.50
2023-02-14T02:42:10.739Z,0.52
2023-02-14T02:47:12.221Z,0.40
2023-02-14T02:52:51.055Z,0.80
2023-02-14T02:57:53.595Z,0.57
2023-02-14T03:03:15.168Z,0.75
2023-02-14T03:08:16.610Z,0.73
2023-02-14T03:13:30.853Z,0.70
2023-02-14T03:19:01.388Z,0.43
2023-02-14T03:24:21.186Z,0.65
2023-02-14T03:29:31.751Z,0.70
2023-02-14T03:34:43.394Z,1.10
2023-02-14T03:39:50.794Z,0.63
2023-02-14T03:44:53.538Z,0.73
2023-02-14T03:50:02.941Z,0.52
2023-02-14T03:55:06.360Z,0.50
2023-02-14T04:00:08.504Z,0.60
2023-02-14T04:05:13.466Z,0.68
2023-02-14T04:10:15.482Z,0.40
2023-02-14T04:15:17.059Z,0.90
2023-02-14T04:20:18.608Z,0.60
2023-02-14T04:25:20.605Z,0.47
2023-02-14T04:30:22.971Z,0.55
2023-02-14T04:35:24.578Z,0.60
2023-02-14T04:40:26.064Z,0.52
2023-02-14T04:45:27.734Z,0.50
2023-02-14T04:50:29.225Z,0.43
2023-02-14T04:55:31.104Z,0.60
2023-02-14T05:00:32.745Z,0.57
2023-02-14T05:05:34.253Z,0.73
2023-02-14T05:10:35.724Z,0.70
2023-02-14T05:15:38.534Z,0.55
2023-02-14T05:20:40.258Z,0.80
2023-02-14T05:25:41.955Z,1.38
2023-02-14T05:30:43.623Z,1.38
2023-02-14T05:35:45.281Z,1.17
2023-02-14T05:40:46.789Z,1.10
2023-02-14T05:45:48.593Z,0.75
2023-02-14T05:50:50.114Z,0.55
2023-02-14T05:55:51.648Z,1.30
2023-02-14T06:00:53.137Z,1.15
2023-02-14T06:05:54.687Z,2.28
2023-02-14T06:10:56.136Z,3.08
2023-02-14T06:15:57.629Z,3.88
2023-02-14T06:20:59.394Z,2.97
2023-02-14T06:26:01.124Z,1.30
2023-02-14T06:31:03.170Z,0.95
2023-02-14T06:36:04.934Z,0.77
2023-02-14T06:41:06.790Z,1.25
2023-02-14T06:46:08.377Z,0.63
2023-02-14T06:51:09.898Z,0.93
2023-02-14T06:56:11.557Z,0.80
2023-02-14T07:01:13.125Z,0.43
2023-02-14T07:06:14.574Z,0.82
2023-02-14T07:11:16.113Z,0.70
2023-02-14T07:16:17.762Z,0.70
2023-02-14T07:21:19.285Z,0.70
2023-02-14T07:26:20.765Z,1.02
2023-02-14T07:31:23.620Z,0.93
2023-02-14T07:36:25.247Z,1.05
2023-02-14T07:41:27.064Z,0.68
2023-02-14T07:46:28.643Z,0.68
2023-02-14T07:51:30.347Z,0.88
2023-02-14T07:56:32.000Z,0.70
2023-02-14T08:01:33.643Z,0.90
2023-02-14T08:06:35.220Z,1.05
2023-02-14T08:11:55.883Z,1.33
2023-02-14T08:16:57.342Z,1.02
2023-02-14T08:21:58.812Z,0.55
2023-02-14T08:27:00.253Z,0.70
2023-02-14T08:32:01.832Z,0.73
2023-02-14T08:37:03.353Z,0.90
2023-02-14T08:42:05.191Z,0.70
2023-02-14T08:47:06.770Z,0.85
2023-02-14T08:52:08.583Z,0.70
2023-02-14T08:57:10.245Z,0.40
2023-02-14T09:02:16.387Z,0.68
2023-02-14T09:07:18.274Z,0.77
2023-02-14T09:12:19.742Z,0.90
2023-02-14T09:17:21.275Z,0.73
2023-02-14T09:22:22.742Z,0.93
2023-02-14T09:27:24.196Z,0.95
2023-02-14T09:32:26.641Z,1.10
2023-02-14T09:37:46.843Z,1.00
2023-02-14T09:42:51.564Z,1.58
2023-02-14T09:47:56.161Z,0.90
2023-02-14T09:53:00.413Z,1.05
2023-02-14T09:58:05.662Z,0.82
2023-02-14T10:03:10.155Z,0.98
2023-02-14T10:08:26.781Z,1.10
2023-02-14T10:13:31.584Z,0.95
2023-02-14T10:18:39.930Z,0.90
2023-02-14T10:23:43.513Z,0.98
2023-02-14T10:28:45.924Z,0.77
2023-02-14T10:33:52.443Z,0.88
2023-02-14T10:39:03.443Z,0.85
2023-02-14T10:44:04.936Z,1.05
2023-02-14T10:49:08.193Z,1.05
2023-02-14T10:54:20.884Z,1.27
2023-02-14T10:59:25.185Z,1.38
2023-02-14T11:04:26.783Z,0.73
2023-02-14T11:09:28.245Z,0.93
2023-02-14T11:14:32.401Z,1.00
2023-02-14T11:19:37.210Z,0.82
2023-02-14T11:24:41.539Z,0.93
2023-02-14T11:29:49.010Z,0.75
2023-02-14T11:34:51.097Z,1.00
2023-02-14T11:39:55.049Z,1.13
2023-02-14T11:44:58.417Z,0.65
2023-02-14T11:50:01.337Z,1.00
2023-02-14T11:55:03.070Z,0.60
2023-02-14T12:00:14.226Z,0.70
2023-02-14T12:05:21.627Z,1.00
2023-02-14T12:10:43.362Z,0.98
2023-02-14T12:15:44.942Z,1.17
2023-02-14T12:21:16.135Z,0.90
2023-02-14T12:26:36.044Z,1.10
2023-02-14T12:31:37.670Z,1.17
2023-02-14T12:36:42.222Z,1.15
2023-02-14T12:41:59.976Z,1.10
2023-02-14T12:47:10.374Z,0.95
2023-02-14T12:52:14.800Z,0.90
2023-02-14T12:57:29.848Z,0.82
2023-02-14T13:02:31.360Z,1.20
2023-02-14T13:07:49.653Z,1.50
2023-02-14T13:12:56.608Z,0.95
2023-02-14T13:18:16.812Z,0.80
2023-02-14T13:23:53.085Z,0.93
2023-02-14T13:29:04.934Z,1.00
2023-02-14T13:34:35.622Z,1.08
2023-02-14T13:39:39.576Z,2.00
2023-02-14T13:44:46.172Z,1.10
2023-02-14T13:49:49.969Z,0.95
2023-02-14T13:54:51.518Z,1.17
2023-02-14T14:00:11.433Z,0.70
2023-02-14T14:05:32.573Z,0.77
2023-02-14T14:10:47.951Z,1.17
2023-02-14T14:16:08.230Z,0.80
2023-02-14T14:21:16.795Z,0.70
2023-02-14T14:26:39.681Z,0.98
2023-02-14T14:31:41.640Z,0.80
2023-02-14T14:36:43.519Z,0.90
2023-02-14T14:41:45.041Z,1.15
2023-02-14T14:46:46.920Z,1.10
2023-02-14T14:51:48.646Z,1.10
2023-02-14T14:56:50.293Z,1.05
2023-02-14T15:01:52.596Z,0.77
2023-02-14T15:06:57.849Z,1.00
2023-02-14T15:12:19.214Z,0.82
2023-02-14T15:17:31.745Z,1.00
2023-02-14T15:22:37.622Z,1.10
2023-02-14T15:27:40.194Z,0.70
2023-02-14T15:32:41.731Z,0.93
2023-02-14T15:37:44.355Z,0.90
2023-02-14T15:42:45.878Z,0.68
2023-02-14T15:47:48.940Z,0.70
2023-02-14T15:52:51.233Z,0.65
2023-02-14T15:57:59.422Z,0.77
2023-02-14T16:03:04.925Z,0.60
2023-02-14T16:08:06.955Z,0.70
2023-02-14T16:13:14.818Z,0.75
2023-02-14T16:18:31.781Z,0.50
2023-02-14T16:23:34.530Z,0.55
2023-02-14T16:28:37.753Z,0.57
2023-02-14T16:33:40.015Z,0.85
2023-02-14T16:38:42.746Z,0.70
2023-02-14T16:43:44.964Z,0.90
2023-02-14T16:48:46.696Z,1.20
2023-02-14T16:53:48.795Z,1.10
2023-02-14T16:58:50.673Z,1.25
2023-02-14T17:03:52.194Z,0.82
2023-02-14T17:08:54.619Z,0.95
2023-02-14T17:13:56.302Z,0.90
2023-02-14T17:18:57.993Z,1.02
2023-02-14T17:23:59.470Z,1.13
2023-02-14T17:29:00.958Z,0.95
2023-02-14T17:34:02.606Z,0.98
2023-02-14T17:39:04.698Z,0.80
2023-02-14T17:44:07.303Z,0.82
2023-02-14T17:49:09.927Z,1.10
2023-02-14T17:54:12.433Z,2.50
2023-02-14T17:59:13.954Z,1.83
2023-02-14T18:04:15.423Z,1.83
2023-02-14T18:09:16.998Z,2.17
2023-02-14T18:14:18.463Z,3.10
2023-02-14T18:19:20.046Z,4.00
2023-02-14T18:24:21.542Z,3.45
2023-02-14T18:29:23.311Z,3.22
2023-02-14T18:34:24.840Z,3.72
2023-02-14T18:39:26.864Z,3.22
2023-02-14T18:44:29.036Z,3.55
2023-02-14T18:49:30.509Z,3.63
2023-02-14T18:54:32.408Z,4.85
2023-02-14T18:59:34.254Z,4.25
2023-02-14T19:04:35.850Z,7.40
2023-02-14T19:09:39.478Z,4.97
2023-02-14T19:14:40.929Z,3.63
2023-02-14T19:19:42.521Z,5.38
2023-02-14T19:24:43.996Z,3.90
2023-02-14T19:29:45.497Z,3.85
2023-02-14T19:34:47.007Z,7.97
2023-02-14T19:39:48.867Z,4.15
2023-02-14T19:44:50.355Z,5.10
2023-02-14T19:49:51.819Z,4.55
2023-02-14T19:54:55.428Z,4.80
2023-02-14T19:59:56.914Z,4.38
2023-02-14T20:05:04.244Z,5.95
2023-02-14T20:10:06.043Z,5.75
2023-02-14T20:15:10.819Z,16.25
2023-02-14T20:20:13.807Z,5.03
2023-02-14T20:25:15.368Z,4.53
2023-02-14T20:30:20.774Z,3.75
2023-02-14T20:35:22.337Z,4.90
2023-02-14T20:40:23.814Z,4.55
2023-02-14T20:45:25.265Z,4.45
2023-02-14T20:50:26.730Z,4.15
2023-02-14T20:55:28.573Z,5.25
2023-02-14T21:00:30.170Z,5.00
2023-02-14T21:05:33.295Z,4.70
2023-02-14T21:10:34.834Z,5.35
2023-02-14T21:15:36.288Z,4.68
2023-02-14T21:20:38.704Z,4.63
2023-02-14T21:25:40.484Z,4.30
2023-02-14T21:30:42.539Z,4.65
2023-02-14T21:35:44.198Z,3.65
2023-02-14T21:40:45.652Z,3.97
2023-02-14T21:45:54.467Z,3.70
2023-02-14T21:50:56.094Z,4.00
2023-02-14T21:56:05.367Z,3.50
2023-02-14T22:01:07.225Z,3.83
2023-02-14T22:06:10.167Z,3.53
2023-02-14T22:11:12.864Z,4.10
2023-02-14T22:16:16.138Z,3.58
2023-02-14T22:21:19.030Z,4.10
2023-02-14T22:26:23.027Z,4.25
2023-02-14T22:31:25.147Z,2.72
2023-02-14T22:36:26.701Z,3.50
2023-02-14T22:41:28.550Z,2.58
2023-02-14T22:46:30.743Z,2.63
2023-02-14T22:51:33.888Z,2.70
2023-02-14T22:56:39.767Z,2.75
2023-02-14T23:01:42.283Z,2.72
2023-02-14T23:06:44.043Z,2.72
2023-02-14T23:11:46.641Z,1.98
2023-02-14T23:17:06.874Z,2.40
2023-02-14T23:22:27.030Z,3.05
2023-02-14T23:27:33.604Z,2.70
2023-02-14T23:32:35.161Z,2.67
2023-02-14T23:37:36.696Z,2.13
2023-02-14T23:42:38.152Z,2.50
2023-02-14T23:47:39.589Z,1.85
2023-02-14T23:52:41.881Z,2.22
2023-02-14T23:57:43.655Z,2.10
